Messwerte St. Mary's

Temperatur

Temperatur
°C
1618030800 21.00 21.00 -14
1618034400 22.00 22.00 -14
1618038000 23.00 23.00
1618041600 0.00 0.00
1618045200 1.00 1.00 -15
1618048800 2.00 2.00 -15
1618052400 3.00 3.00
1618056000 4.00 4.00 -16
1618059600 5.00 5.00
1618063200 6.00 6.00
1618066800 7.00 7.00 -16
1618070400 8.00 8.00 -16
1618074000 9.00 9.00 -15
1618077600 10.00 10.00
1618081200 11.00 11.00 -14
1618084800 12.00 12.00 -14
1618088400 13.00 13.00 -12
1618092000 14.00 14.00 -12
1618095600 15.00 15.00 -10
1618099200 16.00 16.00 -9
1618102800 17.00 17.00 -8
1618106400 18.00 18.00 -8
1618110000 19.00 19.00 -8
1618113600 20.00 20.00 -8

Aktuellste Messwerte

Wettercharakter
Wetter: bedeckt, etwas Schnee
Temperatur
-8 °C
Feuchtigkeit
92 %
Wind
45 km/hWindrichtung: Ost
Böen
50 km/h
Luftdruck
1008 hPa
Messzeit: 10. April 2021, 20.00Datenquelle: METAR

Weitere Messstationen in der Nähe

Messstation Temperatur Entfernung
Marshall -5 °C 70 km
Russian Mission -6 °C 108 km
Scammon Bay -4 °C 121 km
Cape Romanzoff -2 °C 146 km
Hooper Bay -2 °C 161 km
Bethel 1 °C 163 km
Anvik, Anvik Airport -11 °C 173 km
Holy Cross -4 °C 183 km

Wind

Windrichtung Böen Mittelwind
° km/h km/h
1618030800 21.00 20.00 - 21.00 80° 45 35
1618034400 22.00 21.00 - 22.00 100° 70 60
1618038000 23.00 22.00 - 23.00 90° 60 45
1618041600 0.00 23.00 - 0.00 90° 60 45
1618045200 1.00 0.00 - 1.00 90° 50 40
1618048800 2.00 1.00 - 2.00 80° 60 45
1618052400 3.00 2.00 - 3.00
1618056000 4.00 3.00 - 4.00 100° 70 55
1618059600 5.00 4.00 - 5.00 90° 70 55
1618063200 6.00 5.00 - 6.00 90° 60 45
1618066800 7.00 6.00 - 7.00 100° 70 50
1618070400 8.00 7.00 - 8.00 100° 70 50
1618074000 9.00 8.00 - 9.00 100° 60 50
1618077600 10.00 9.00 - 10.00 100° 65 50
1618081200 11.00 10.00 - 11.00 100° 65 50
1618084800 12.00 11.00 - 12.00 100° 60 45
1618088400 13.00 12.00 - 13.00 110° 60 45
1618092000 14.00 13.00 - 14.00 110° 60 45
1618095600 15.00 14.00 - 15.00 110° 55 40
1618099200 16.00 15.00 - 16.00 110° 55 40
1618102800 17.00 16.00 - 17.00 100° 55 40
1618106400 18.00 17.00 - 18.00 110° 50 40
1618110000 19.00 18.00 - 19.00 100° 50 35
1618113600 20.00 19.00 - 20.00 100° 50 45

Ihre Wetterstation

Fehlt Ihre Wetterstation auf unserem Portal?

Schreiben Sie an network@meteonews.ch

Klima

Wann ist es am wärmsten? Wann regnet es am wenigsten? Unsere Klimadaten geben Auskunft.